Terminal Aerodrome Forecast
Issued by NWS Newport/Morehead City, NC

Home | Current Version | Previous Version | Text Only | Print | Product List | Glossary Off
Versions: 1 2 3 4 5 6 7 8 9 10 11 12 13 14 15 16 17 18 19 20 21 22 23 24 25 26

696
FTUS42 KMHX 302323
TAFEWN
TAF
KEWN 302323Z 0100/0124 09005KT P6SM OVC040
     FM010600 VRB04KT P6SM BKN007
     FM011200 15005KT P6SM BKN015
     FM011400 20010KT P6SM SCT040 BKN120=

USA.gov is the U.S. government's official web portal to all federal, state and local government web resources and services.